createdAt,value
2018-12-13T00:00:15.640Z,10.30
2018-12-13T00:02:43.004Z,9.93
2018-12-13T00:05:10.468Z,9.73
2018-12-13T00:07:41.990Z,9.85
2018-12-13T00:10:13.629Z,10.15
2018-12-13T00:12:40.945Z,10.78
2018-12-13T00:15:11.715Z,11.83
2018-12-13T00:17:39.018Z,9.35
2018-12-13T00:20:10.058Z,10.50
2018-12-13T00:22:37.516Z,11.35
2018-12-13T00:27:50.524Z,10.48
2018-12-13T00:30:17.821Z,9.93
2018-12-13T00:32:51.015Z,10.65
2018-12-13T00:35:18.307Z,10.78
2018-12-13T00:42:36.551Z,10.20
2018-12-13T00:45:07.436Z,9.40
2018-12-13T00:47:40.163Z,10.00
2018-12-13T00:50:07.614Z,10.15
2018-12-13T00:52:35.252Z,10.53
2018-12-13T01:03:26.939Z,10.40
2018-12-13T01:05:54.322Z,10.20
2018-12-13T01:08:22.748Z,10.72
2018-12-13T01:10:50.040Z,10.05
2018-12-13T01:13:17.368Z,10.90
2018-12-13T01:15:44.776Z,10.30
2018-12-13T01:18:12.203Z,9.70
2018-12-13T01:20:39.536Z,9.85
2018-12-13T01:23:06.894Z,9.00
2018-12-13T01:25:34.976Z,10.38
2018-12-13T01:28:10.084Z,9.45
2018-12-13T01:30:37.487Z,11.08
2018-12-13T01:33:19.357Z,10.55
2018-12-13T01:35:46.664Z,10.82
2018-12-13T01:38:13.964Z,10.43
2018-12-13T01:40:48.882Z,10.13
2018-12-13T01:43:16.377Z,10.43
2018-12-13T01:48:42.330Z,12.25
2018-12-13T01:51:09.852Z,11.65
2018-12-13T01:53:44.054Z,12.20
2018-12-13T01:56:11.394Z,10.63
2018-12-13T01:58:38.712Z,10.90
2018-12-13T02:01:06.087Z,11.00
2018-12-13T02:03:38.846Z,9.13
2018-12-13T02:06:06.139Z,10.10
2018-12-13T02:08:33.571Z,10.38
2018-12-13T02:11:00.882Z,11.12
2018-12-13T02:13:28.632Z,11.53
2018-12-13T02:15:56.106Z,11.65
2018-12-13T02:18:23.955Z,10.75
2018-12-13T02:23:19.624Z,11.35
2018-12-13T02:25:46.992Z,9.90
2018-12-13T02:28:26.648Z,11.20
2018-12-13T02:30:53.959Z,11.50
2018-12-13T02:33:25.139Z,11.80
2018-12-13T02:35:52.590Z,11.55
2018-12-13T02:38:23.148Z,11.93
2018-12-13T02:40:50.584Z,12.13
2018-12-13T02:43:17.937Z,11.43
2018-12-13T02:45:45.336Z,11.45
2018-12-13T02:48:12.656Z,11.05
2018-12-13T02:50:40.551Z,11.12
2018-12-13T03:01:38.346Z,11.15
2018-12-13T03:04:05.679Z,9.58
2018-12-13T03:06:38.088Z,10.70
2018-12-13T03:09:06.596Z,10.45
2018-12-13T03:11:35.233Z,10.03
2018-12-13T03:14:02.549Z,9.23
2018-12-13T03:16:31.932Z,9.55
2018-12-13T03:18:59.266Z,10.05
2018-12-13T03:21:27.671Z,10.10
2018-12-13T03:23:54.978Z,8.35
2018-12-13T03:26:22.300Z,9.48
2018-12-13T03:28:49.751Z,9.20
2018-12-13T03:31:17.073Z,9.88
2018-12-13T03:33:59.979Z,9.15
2018-12-13T03:36:27.324Z,8.20
2018-12-13T03:38:56.513Z,8.00
2018-12-13T03:41:23.866Z,9.05
2018-12-13T03:43:51.255Z,8.38
2018-12-13T03:46:18.541Z,8.30
2018-12-13T03:48:45.970Z,9.10
2018-12-13T03:51:13.376Z,10.03
2018-12-13T03:53:40.689Z,8.98
2018-12-13T03:56:08.027Z,10.68
2018-12-13T03:58:35.468Z,7.58
2018-12-13T04:01:02.777Z,9.53
2018-12-13T04:03:33.754Z,9.20
2018-12-13T04:06:01.068Z,10.32
2018-12-13T04:08:28.495Z,8.00
2018-12-13T04:10:55.813Z,10.03
2018-12-13T04:13:23.472Z,9.55
2018-12-13T04:15:50.879Z,8.58
2018-12-13T04:18:25.489Z,8.65
2018-12-13T04:20:52.817Z,9.18
2018-12-13T04:31:52.890Z,9.50
2018-12-13T04:34:20.189Z,10.05
2018-12-13T04:36:47.532Z,9.35
2018-12-13T04:39:14.847Z,9.60
2018-12-13T04:41:42.344Z,8.95
2018-12-13T04:44:10.292Z,9.18
2018-12-13T04:46:37.653Z,9.83
2018-12-13T04:49:04.950Z,9.45
2018-12-13T04:51:35.596Z,10.18
2018-12-13T04:59:45.400Z,10.00
2018-12-13T05:02:12.708Z,10.72
2018-12-13T05:04:44.195Z,11.78
2018-12-13T05:07:12.241Z,11.25
2018-12-13T05:09:41.564Z,11.95
2018-12-13T05:12:08.888Z,11.10
2018-12-13T05:14:36.317Z,11.35
2018-12-13T05:17:03.639Z,11.20
2018-12-13T05:19:31.764Z,12.28
2018-12-13T05:21:59.097Z,12.53
2018-12-13T05:24:26.571Z,14.45
2018-12-13T05:26:53.869Z,10.43
2018-12-13T05:29:22.241Z,11.80
2018-12-13T05:31:52.654Z,12.13
2018-12-13T05:34:25.695Z,10.93
2018-12-13T05:36:53.000Z,12.10
2018-12-13T05:39:22.471Z,11.55
2018-12-13T05:41:50.525Z,12.80
2018-12-13T05:44:21.277Z,10.48
2018-12-13T05:46:52.776Z,10.90
2018-12-13T05:49:20.058Z,10.58
2018-12-13T05:51:49.322Z,10.72
2018-12-13T05:54:16.656Z,11.63
2018-12-13T05:56:50.092Z,11.85
2018-12-13T05:59:17.416Z,11.73
2018-12-13T06:01:44.771Z,11.68
2018-12-13T06:07:01.240Z,12.13
2018-12-13T06:09:28.551Z,11.63
2018-12-13T06:12:03.752Z,11.97
2018-12-13T06:14:31.031Z,12.47
2018-12-13T06:16:58.362Z,11.25
2018-12-13T06:19:26.868Z,11.93
2018-12-13T06:21:54.376Z,11.22
2018-12-13T06:24:21.657Z,14.00
2018-12-13T06:26:48.908Z,12.82
2018-12-13T06:29:16.277Z,13.38
2018-12-13T06:31:43.586Z,13.55
2018-12-13T06:34:10.941Z,13.28
2018-12-13T06:36:38.241Z,14.13
2018-12-13T06:39:06.640Z,12.23
2018-12-13T06:44:19.764Z,13.10
2018-12-13T06:46:47.130Z,13.85
2018-12-13T06:49:14.464Z,12.68
2018-12-13T06:51:41.771Z,13.43
2018-12-13T06:54:15.724Z,13.25
2018-12-13T06:56:42.963Z,13.05
2018-12-13T06:59:12.343Z,13.00
2018-12-13T07:01:39.650Z,12.95
2018-12-13T07:04:06.944Z,12.90
2018-12-13T07:06:35.259Z,13.48
2018-12-13T07:09:04.460Z,13.53
2018-12-13T07:11:31.856Z,14.20
2018-12-13T07:13:59.168Z,15.45
2018-12-13T07:16:39.320Z,16.25
2018-12-13T07:19:06.602Z,14.28
2018-12-13T07:21:34.016Z,14.53
2018-12-13T07:24:01.288Z,14.45
2018-12-13T07:26:31.759Z,15.93
2018-12-13T07:28:58.994Z,14.45
2018-12-13T07:31:26.268Z,16.00
2018-12-13T07:34:02.906Z,16.17
2018-12-13T07:36:30.203Z,14.13
2018-12-13T07:38:58.025Z,15.88
2018-12-13T07:41:29.128Z,14.45
2018-12-13T07:43:56.644Z,15.20
2018-12-13T07:46:29.703Z,12.45
2018-12-13T07:48:57.195Z,13.40
2018-12-13T07:51:24.544Z,15.30
2018-12-13T07:53:51.824Z,15.43
2018-12-13T07:56:19.150Z,16.40
2018-12-13T07:58:46.457Z,16.27
2018-12-13T08:01:13.800Z,16.05
2018-12-13T08:03:41.044Z,15.85
2018-12-13T08:06:20.542Z,14.75
2018-12-13T08:08:48.487Z,13.95
2018-12-13T08:11:27.174Z,15.58
2018-12-13T08:14:28.315Z,14.60
2018-12-13T08:16:55.627Z,12.80
2018-12-13T08:19:26.806Z,15.32
2018-12-13T08:21:54.091Z,13.43
2018-12-13T08:24:21.356Z,11.53
2018-12-13T08:26:56.936Z,13.68
2018-12-13T08:29:24.228Z,15.72
2018-12-13T08:31:51.555Z,13.28
2018-12-13T08:34:18.884Z,13.20
2018-12-13T08:39:11.617Z,13.73
2018-12-13T08:41:38.896Z,12.30
2018-12-13T08:44:07.240Z,14.23
2018-12-13T08:52:08.521Z,13.45
2018-12-13T08:54:35.804Z,13.78
2018-12-13T08:57:04.462Z,12.15
2018-12-13T08:59:32.381Z,12.98
2018-12-13T09:01:59.648Z,14.60
2018-12-13T09:04:27.048Z,12.82
2018-12-13T09:06:54.482Z,13.30
2018-12-13T09:09:31.751Z,12.78
2018-12-13T09:11:59.068Z,15.03
2018-12-13T09:14:32.091Z,14.35
2018-12-13T09:16:59.500Z,13.43
2018-12-13T09:25:05.231Z,12.55
2018-12-13T09:27:45.100Z,12.47
2018-12-13T09:30:12.369Z,15.18
2018-12-13T09:32:39.892Z,13.05
2018-12-13T09:35:07.215Z,13.35
2018-12-13T09:37:34.539Z,13.25
2018-12-13T09:40:01.800Z,13.10
2018-12-13T09:42:29.182Z,12.68
2018-12-13T09:45:00.292Z,12.88
2018-12-13T09:47:27.596Z,11.83
2018-12-13T09:58:20.884Z,14.58
2018-12-13T10:00:48.191Z,12.47
2018-12-13T10:03:15.544Z,12.63
2018-12-13T10:05:42.866Z,13.22
2018-12-13T10:08:10.181Z,14.30
2018-12-13T10:10:37.484Z,12.63
2018-12-13T10:13:05.029Z,12.75
2018-12-13T10:15:32.454Z,11.97
2018-12-13T10:18:09.513Z,13.80
2018-12-13T10:20:36.817Z,12.68
2018-12-13T10:23:04.358Z,12.35
2018-12-13T10:25:31.688Z,12.10
2018-12-13T10:27:59.052Z,11.80
2018-12-13T10:30:26.373Z,12.03
2018-12-13T10:33:01.132Z,12.75
2018-12-13T10:35:28.445Z,10.93
2018-12-13T10:37:55.825Z,13.05
2018-12-13T10:40:31.259Z,11.70
2018-12-13T10:42:58.569Z,13.25
2018-12-13T10:45:25.829Z,11.53
2018-12-13T10:47:53.104Z,13.65
2018-12-13T10:50:20.405Z,11.73
2018-12-13T10:52:47.823Z,11.22
2018-12-13T10:55:15.260Z,13.15
2018-12-13T10:57:42.593Z,11.80
2018-12-13T11:00:14.414Z,14.45
2018-12-13T11:02:51.684Z,12.43
2018-12-13T11:05:18.980Z,13.05
2018-12-13T11:07:46.213Z,13.15
2018-12-13T11:10:13.712Z,13.60
2018-12-13T11:12:41.041Z,10.98
2018-12-13T11:15:08.411Z,11.68
2018-12-13T11:17:35.703Z,12.40
2018-12-13T11:20:08.755Z,12.45
2018-12-13T11:22:36.048Z,12.63
2018-12-13T11:25:07.476Z,14.43
2018-12-13T11:27:40.347Z,11.35
2018-12-13T11:30:22.042Z,12.28
2018-12-13T11:32:49.372Z,12.23
2018-12-13T11:35:16.964Z,11.25
2018-12-13T11:37:54.460Z,10.78
2018-12-13T11:40:21.828Z,10.10
2018-12-13T11:42:49.092Z,10.32
2018-12-13T11:45:18.285Z,11.30
2018-12-13T11:47:45.636Z,11.22
2018-12-13T11:50:13.022Z,12.40
2018-12-13T11:52:40.327Z,11.05
2018-12-13T11:55:17.832Z,10.82
2018-12-13T11:57:45.142Z,9.93
2018-12-13T12:00:15.874Z,11.03
2018-12-13T12:02:43.239Z,12.03
2018-12-13T12:05:10.589Z,9.95
2018-12-13T12:07:37.863Z,10.93
2018-12-13T12:10:05.301Z,9.78
2018-12-13T12:12:32.538Z,10.58
2018-12-13T12:14:59.849Z,10.15
2018-12-13T12:17:27.110Z,10.32
2018-12-13T12:20:01.728Z,9.50
2018-12-13T12:22:29.079Z,10.35
2018-12-13T12:33:20.299Z,9.83
2018-12-13T12:35:48.144Z,9.15
2018-12-13T12:38:23.839Z,9.53
2018-12-13T12:40:52.205Z,9.68
2018-12-13T12:43:19.769Z,9.00
2018-12-13T12:45:54.851Z,8.60
2018-12-13T12:48:22.202Z,9.70
2018-12-13T12:50:49.464Z,7.80
2018-12-13T12:53:16.839Z,8.13
2018-12-13T12:55:44.160Z,9.75
2018-12-13T12:58:11.547Z,9.98
2018-12-13T13:00:38.965Z,9.55
2018-12-13T13:03:06.460Z,7.40
2018-12-13T13:05:33.793Z,9.13
2018-12-13T13:10:48.864Z,9.05
2018-12-13T13:13:16.133Z,7.55
2018-12-13T13:15:43.498Z,8.10
2018-12-13T13:18:10.815Z,8.20
2018-12-13T13:20:38.249Z,7.50
2018-12-13T13:23:05.551Z,7.95
2018-12-13T13:25:33.081Z,8.28
2018-12-13T13:28:00.320Z,10.60
2018-12-13T13:30:37.135Z,8.08
2018-12-13T13:33:04.550Z,8.33
2018-12-13T13:35:31.865Z,7.65
2018-12-13T13:38:00.202Z,8.25
2018-12-13T13:40:31.102Z,6.45
2018-12-13T13:42:58.572Z,7.00
2018-12-13T13:45:36.537Z,6.20
2018-12-13T13:48:03.872Z,6.87
2018-12-13T13:50:32.609Z,6.37
2018-12-13T13:52:59.897Z,7.30
2018-12-13T13:55:28.532Z,6.42
2018-12-13T13:57:55.860Z,6.80
2018-12-13T14:00:28.858Z,6.15
2018-12-13T14:02:56.125Z,6.42
2018-12-13T14:05:23.529Z,7.30
2018-12-13T14:07:50.855Z,7.20
2018-12-13T14:10:18.172Z,7.20
2018-12-13T14:12:45.403Z,7.25
2018-12-13T14:15:19.660Z,5.42
2018-12-13T14:17:46.958Z,5.97
2018-12-13T14:20:18.832Z,6.05
2018-12-13T14:22:46.629Z,7.80
2018-12-13T14:25:14.003Z,7.72
2018-12-13T14:27:41.353Z,7.15
2018-12-13T14:32:53.851Z,6.92
2018-12-13T14:35:21.171Z,6.50
2018-12-13T14:37:52.264Z,6.80
2018-12-13T14:40:19.564Z,6.53
2018-12-13T14:42:46.897Z,6.33
2018-12-13T14:45:14.200Z,5.60
2018-12-13T14:47:43.747Z,6.33
2018-12-13T14:50:11.134Z,5.70
2018-12-13T14:52:38.736Z,5.92
2018-12-13T14:55:06.128Z,6.50
2018-12-13T14:57:34.194Z,6.42
2018-12-13T15:08:30.748Z,6.55
2018-12-13T15:10:58.172Z,5.70
2018-12-13T15:13:25.488Z,7.42
2018-12-13T15:15:52.868Z,5.83
2018-12-13T15:18:24.086Z,5.87
2018-12-13T15:20:51.432Z,5.35
2018-12-13T15:23:22.227Z,4.45
2018-12-13T15:25:49.732Z,7.15
2018-12-13T15:28:29.179Z,6.85
2018-12-13T15:30:56.515Z,5.47
2018-12-13T15:33:34.929Z,5.12
2018-12-13T15:36:02.388Z,5.50
2018-12-13T15:38:30.744Z,6.45
2018-12-13T15:40:58.062Z,6.40
2018-12-13T15:43:25.591Z,5.95
2018-12-13T15:45:53.232Z,6.20
2018-12-13T15:48:20.693Z,4.87
2018-12-13T15:50:48.007Z,8.83
2018-12-13T15:53:15.324Z,6.40
2018-12-13T15:55:42.628Z,6.05
2018-12-13T15:58:13.296Z,6.40
2018-12-13T16:00:40.616Z,5.70
2018-12-13T16:03:07.988Z,6.83
2018-12-13T16:05:35.800Z,5.65
2018-12-13T16:13:45.961Z,6.97
2018-12-13T16:16:13.227Z,7.58
2018-12-13T16:18:40.513Z,7.30
2018-12-13T16:21:07.761Z,6.67
2018-12-13T16:23:36.031Z,6.58
2018-12-13T16:26:07.161Z,7.35
2018-12-13T16:28:34.491Z,7.15
2018-12-13T16:31:01.816Z,6.50
2018-12-13T16:33:29.065Z,7.33
2018-12-13T16:35:56.367Z,6.67
2018-12-13T16:38:23.653Z,8.05
2018-12-13T16:43:41.969Z,7.45
2018-12-13T16:46:13.883Z,6.10
2018-12-13T16:48:41.640Z,8.43
2018-12-13T16:51:09.528Z,10.48
2018-12-13T16:53:43.203Z,10.75
2018-12-13T16:56:10.491Z,8.95
2018-12-13T16:58:37.985Z,8.23
2018-12-13T17:01:05.379Z,8.48
2018-12-13T17:03:40.582Z,8.30
2018-12-13T17:06:08.069Z,7.85
2018-12-13T17:08:35.618Z,8.05
2018-12-13T17:11:03.830Z,8.53
2018-12-13T17:13:41.211Z,9.33
2018-12-13T17:16:09.978Z,8.18
2018-12-13T17:18:37.580Z,7.60
2018-12-13T17:21:04.960Z,7.25
2018-12-13T17:23:36.775Z,8.80
2018-12-13T17:26:05.112Z,9.33
2018-12-13T17:28:32.403Z,9.28
2018-12-13T17:30:59.844Z,9.28
2018-12-13T17:33:27.101Z,8.45
2018-12-13T17:35:55.357Z,8.53
2018-12-13T17:38:23.679Z,7.85
2018-12-13T17:40:50.991Z,8.15
2018-12-13T17:51:44.777Z,9.35
2018-12-13T17:54:12.107Z,8.58
2018-12-13T17:56:39.409Z,7.37
2018-12-13T17:59:06.717Z,7.65
2018-12-13T18:01:34.043Z,7.40
2018-12-13T18:04:01.373Z,7.95
2018-12-13T18:06:28.705Z,7.30
2018-12-13T18:09:00.392Z,8.15
2018-12-13T18:14:01.284Z,8.85
2018-12-13T18:19:14.009Z,7.58
2018-12-13T18:21:41.356Z,10.72
2018-12-13T18:24:08.674Z,9.40
2018-12-13T18:26:36.161Z,9.48
2018-12-13T18:29:03.989Z,9.10
2018-12-13T18:31:31.618Z,8.73
2018-12-13T18:33:58.968Z,7.22
2018-12-13T18:36:26.838Z,8.40
2018-12-13T18:38:55.160Z,7.62
2018-12-13T18:44:09.263Z,9.05
2018-12-13T18:46:49.227Z,9.40
2018-12-13T18:49:17.612Z,7.97
2018-12-13T18:51:45.677Z,9.40
2018-12-13T18:54:14.593Z,8.60
2018-12-13T18:56:47.429Z,9.03
2018-12-13T18:59:16.545Z,8.95
2018-12-13T19:01:44.703Z,11.18
2018-12-13T19:04:13.231Z,8.83
2018-12-13T19:06:41.274Z,8.08
2018-12-13T19:09:09.080Z,8.75
2018-12-13T19:11:37.120Z,9.50
2018-12-13T19:14:05.244Z,9.68
2018-12-13T19:19:18.937Z,9.00
2018-12-13T19:21:46.248Z,9.85
2018-12-13T19:24:13.981Z,10.60
2018-12-13T19:26:41.800Z,9.38
2018-12-13T19:29:09.975Z,9.68
2018-12-13T19:31:38.377Z,9.80
2018-12-13T19:34:13.997Z,9.60
2018-12-13T19:36:42.443Z,11.50
2018-12-13T19:39:10.497Z,11.75
2018-12-13T19:41:39.496Z,11.70
2018-12-13T19:44:08.684Z,9.88
2018-12-13T19:46:56.398Z,8.80
2018-12-13T19:51:53.287Z,9.93
2018-12-13T19:54:25.533Z,10.80
2018-12-13T19:59:22.790Z,10.75
2018-12-13T20:01:51.088Z,10.72
2018-12-13T20:04:19.443Z,9.83
2018-12-13T20:06:48.451Z,11.60
2018-12-13T20:09:17.019Z,10.58
2018-12-13T20:11:44.857Z,9.95
2018-12-13T20:14:13.122Z,10.18
2018-12-13T20:16:40.862Z,10.72
2018-12-13T20:19:08.989Z,9.20
2018-12-13T20:21:36.627Z,11.08
2018-12-13T20:24:04.898Z,10.20
2018-12-13T20:26:33.051Z,10.65
2018-12-13T20:31:58.537Z,11.08
2018-12-13T20:34:26.540Z,10.95
2018-12-13T20:36:54.199Z,10.68
2018-12-13T20:39:22.745Z,7.45
2018-12-13T20:41:50.612Z,9.35
2018-12-13T20:44:19.376Z,9.28
2018-12-13T20:46:47.159Z,9.70
2018-12-13T20:49:15.071Z,9.30
2018-12-13T20:51:43.373Z,9.88
2018-12-13T20:54:11.386Z,11.25
2018-12-13T20:56:39.716Z,10.08
2018-12-13T20:59:13.491Z,12.28
2018-12-13T21:01:41.221Z,10.30
2018-12-13T21:04:09.134Z,11.75
2018-12-13T21:06:45.939Z,10.53
2018-12-13T21:09:14.310Z,10.85
2018-12-13T21:11:42.762Z,10.32
2018-12-13T21:14:11.677Z,10.43
2018-12-13T21:16:39.263Z,11.35
2018-12-13T21:19:07.114Z,10.40
2018-12-13T21:21:35.644Z,11.80
2018-12-13T21:24:03.983Z,10.60
2018-12-13T21:26:38.608Z,12.25
2018-12-13T21:29:08.586Z,11.90
2018-12-13T21:31:36.662Z,12.68
2018-12-13T21:34:04.595Z,12.63
2018-12-13T21:36:37.778Z,11.95
2018-12-13T21:39:06.580Z,12.37
2018-12-13T21:41:33.984Z,10.82
2018-12-13T21:44:06.686Z,12.73
2018-12-13T21:46:34.049Z,14.15
2018-12-13T21:49:01.624Z,13.25
2018-12-13T21:51:28.920Z,12.23
2018-12-13T21:53:56.326Z,13.18
2018-12-13T21:56:23.589Z,14.25
2018-12-13T21:58:51.991Z,12.65
2018-12-13T22:04:10.763Z,15.80
2018-12-13T22:06:38.273Z,14.47
2018-12-13T22:09:06.856Z,14.00
2018-12-13T22:11:34.151Z,14.73
2018-12-13T22:14:01.464Z,11.43
2018-12-13T22:16:28.807Z,11.10
2018-12-13T22:18:56.312Z,10.70
2018-12-13T22:21:23.597Z,10.72
2018-12-13T22:23:50.938Z,10.32
2018-12-13T22:26:18.279Z,12.25
2018-12-13T22:28:45.604Z,13.70
2018-12-13T22:31:14.252Z,13.95
2018-12-13T22:33:41.579Z,11.95
2018-12-13T22:36:08.909Z,12.20
2018-12-13T22:38:36.385Z,12.43
2018-12-13T22:41:04.099Z,13.28
2018-12-13T22:43:31.487Z,12.98
2018-12-13T22:46:01.615Z,12.63
2018-12-13T22:48:28.951Z,13.43
2018-12-13T22:50:56.228Z,14.05
2018-12-13T22:53:23.519Z,13.13
2018-12-13T22:55:50.834Z,13.30
2018-12-13T22:58:23.356Z,13.32
2018-12-13T23:00:50.760Z,11.80
2018-12-13T23:03:18.078Z,13.40
2018-12-13T23:05:45.384Z,13.05
2018-12-13T23:08:12.713Z,13.60
2018-12-13T23:10:40.015Z,14.73
2018-12-13T23:13:07.524Z,14.15
2018-12-13T23:15:34.797Z,12.73
2018-12-13T23:18:02.085Z,12.73
2018-12-13T23:20:30.440Z,12.65
2018-12-13T23:23:09.987Z,12.58
2018-12-13T23:25:37.283Z,11.68
2018-12-13T23:28:04.687Z,13.83
2018-12-13T23:30:32.004Z,12.95
2018-12-13T23:32:59.320Z,13.48
2018-12-13T23:35:26.564Z,12.60
2018-12-13T23:37:53.855Z,12.82
2018-12-13T23:40:21.292Z,11.83
2018-12-13T23:42:48.728Z,12.10
2018-12-13T23:45:16.006Z,11.97
2018-12-13T23:47:43.560Z,13.48
2018-12-13T23:50:11.260Z,12.93
2018-12-13T23:52:38.689Z,14.33
2018-12-13T23:55:05.996Z,13.00
2018-12-13T23:57:37.202Z,12.88
